createdAt,value
2017-06-02T00:00:53.152Z,15.96
2017-06-02T00:03:21.472Z,11.58
2017-06-02T00:05:49.795Z,15.86
2017-06-02T00:08:18.119Z,14.16
2017-06-02T00:10:46.428Z,14.32
2017-06-02T00:13:14.744Z,25.90
2017-06-02T00:15:43.059Z,20.48
2017-06-02T00:18:11.376Z,22.56
2017-06-02T00:20:39.700Z,25.50
2017-06-02T00:23:08.028Z,21.50
2017-06-02T00:25:36.344Z,13.32
2017-06-02T00:28:04.687Z,15.02
2017-06-02T00:30:33.007Z,17.36
2017-06-02T00:33:01.319Z,15.14
2017-06-02T00:35:29.632Z,21.44
2017-06-02T00:37:57.943Z,24.74
2017-06-02T00:40:26.251Z,15.68
2017-06-02T00:42:54.571Z,19.44
2017-06-02T00:45:22.889Z,20.06
2017-06-02T00:47:51.216Z,21.64
2017-06-02T00:50:19.539Z,15.68
2017-06-02T00:52:47.856Z,11.28
2017-06-02T00:55:16.243Z,14.18
2017-06-02T00:57:44.553Z,15.76
2017-06-02T01:00:12.863Z,14.76
2017-06-02T01:02:41.185Z,15.14
2017-06-02T01:05:09.500Z,31.44
2017-06-02T01:07:37.819Z,28.90
2017-06-02T01:10:06.140Z,33.64
2017-06-02T01:12:34.451Z,35.50
2017-06-02T01:15:02.775Z,31.96
2017-06-02T01:17:31.091Z,25.40
2017-06-02T01:19:59.412Z,23.22
2017-06-02T01:22:27.728Z,31.68
2017-06-02T01:24:56.045Z,35.52
2017-06-02T01:27:24.363Z,33.50
2017-06-02T01:29:52.697Z,33.84
2017-06-02T01:32:21.024Z,29.92
2017-06-02T01:34:49.340Z,30.08
2017-06-02T01:37:17.664Z,35.14
2017-06-02T01:39:45.980Z,28.30
2017-06-02T01:42:14.290Z,29.18
2017-06-02T01:44:42.619Z,27.62
2017-06-02T01:47:10.932Z,24.64
2017-06-02T01:49:39.243Z,23.46
2017-06-02T01:52:07.562Z,21.78
2017-06-02T01:54:35.869Z,22.30
2017-06-02T01:57:04.188Z,26.84
2017-06-02T01:59:32.515Z,26.32
2017-06-02T02:02:00.832Z,20.64
2017-06-02T02:04:29.147Z,24.72
2017-06-02T02:06:57.463Z,19.84
2017-06-02T02:09:25.967Z,18.88
2017-06-02T02:11:54.287Z,12.66
2017-06-02T02:14:22.595Z,11.60
2017-06-02T02:16:50.910Z,8.74
2017-06-02T02:19:19.229Z,7.40
2017-06-02T02:21:47.548Z,9.00
2017-06-02T02:24:15.859Z,10.08
2017-06-02T02:26:44.168Z,8.16
2017-06-02T02:29:12.483Z,6.52
2017-06-02T02:31:40.791Z,7.74
2017-06-02T02:34:09.116Z,7.94
2017-06-02T02:36:37.468Z,8.78
2017-06-02T02:39:05.781Z,9.36
2017-06-02T02:41:34.096Z,10.02
2017-06-02T02:44:02.415Z,5.36
2017-06-02T02:46:30.776Z,6.82
2017-06-02T02:48:59.087Z,7.12
2017-06-02T02:51:27.405Z,6.48
2017-06-02T02:53:55.723Z,6.48
2017-06-02T02:56:24.023Z,6.84
2017-06-02T02:58:52.339Z,7.24
2017-06-02T03:01:20.656Z,8.30
2017-06-02T03:03:48.964Z,6.16
2017-06-02T03:06:17.288Z,6.96
2017-06-02T03:08:45.599Z,6.92
2017-06-02T03:11:13.924Z,10.12
2017-06-02T03:13:42.235Z,6.92
2017-06-02T03:16:10.541Z,10.96
2017-06-02T03:18:38.864Z,9.60
2017-06-02T03:21:07.176Z,12.86
2017-06-02T03:23:35.499Z,7.12
2017-06-02T03:26:03.808Z,7.08
2017-06-02T03:28:32.127Z,8.08
2017-06-02T03:31:00.444Z,10.76
2017-06-02T03:33:28.753Z,10.46
2017-06-02T03:35:57.257Z,13.64
2017-06-02T03:38:25.580Z,14.86
2017-06-02T03:40:53.895Z,14.20
2017-06-02T03:43:22.214Z,14.34
2017-06-02T03:45:50.531Z,14.72
2017-06-02T03:48:18.852Z,14.12
2017-06-02T03:50:47.167Z,13.86
2017-06-02T03:53:15.491Z,17.60
2017-06-02T03:55:43.807Z,14.36
2017-06-02T03:58:12.147Z,15.88
2017-06-02T04:00:40.480Z,12.14
2017-06-02T04:03:08.795Z,14.92
2017-06-02T04:05:37.109Z,12.74
2017-06-02T04:08:05.428Z,18.12
2017-06-02T04:10:33.747Z,15.94
2017-06-02T04:13:02.064Z,14.72
2017-06-02T04:15:30.381Z,11.72
2017-06-02T04:17:58.696Z,15.90
2017-06-02T04:20:27.095Z,11.50
2017-06-02T04:22:55.417Z,12.68
2017-06-02T04:25:23.743Z,14.80
2017-06-02T04:27:52.058Z,13.96
2017-06-02T04:30:20.372Z,11.42
2017-06-02T04:32:48.687Z,12.20
2017-06-02T04:35:17.010Z,9.62
2017-06-02T04:37:45.355Z,13.26
2017-06-02T04:40:13.673Z,10.92
2017-06-02T04:42:41.987Z,10.74
2017-06-02T04:45:10.296Z,11.04
2017-06-02T04:47:38.616Z,13.08
2017-06-02T04:50:06.931Z,10.00
2017-06-02T04:52:35.244Z,9.90
2017-06-02T04:55:03.561Z,12.00
2017-06-02T04:57:31.881Z,11.58
2017-06-02T05:00:00.195Z,18.64
2017-06-02T05:02:28.596Z,9.88
2017-06-02T05:04:56.917Z,11.92
2017-06-02T05:07:25.310Z,10.36
2017-06-02T05:09:53.640Z,14.10
2017-06-02T05:12:22.004Z,7.88
2017-06-02T05:14:50.313Z,9.42
2017-06-02T05:17:19.449Z,9.66
2017-06-02T05:19:50.960Z,14.30
2017-06-02T05:22:19.285Z,9.18
2017-06-02T05:24:47.596Z,9.96
2017-06-02T05:27:15.907Z,14.92
2017-06-02T05:29:44.215Z,10.18
2017-06-02T05:32:12.533Z,11.46
2017-06-02T05:34:40.852Z,13.62
2017-06-02T05:37:09.162Z,15.46
2017-06-02T05:39:37.471Z,12.54
2017-06-02T05:42:05.787Z,10.68
2017-06-02T05:44:34.105Z,10.16
2017-06-02T05:47:02.420Z,8.38
2017-06-02T05:49:30.731Z,13.20
2017-06-02T05:51:59.044Z,10.56
2017-06-02T05:54:27.365Z,11.20
2017-06-02T05:56:55.685Z,9.64
2017-06-02T05:59:23.996Z,13.78
2017-06-02T06:01:52.310Z,9.02
2017-06-02T06:04:20.623Z,15.16
2017-06-02T06:06:48.938Z,13.46
2017-06-02T06:09:17.275Z,10.46
2017-06-02T06:11:45.591Z,8.06
2017-06-02T06:14:13.903Z,11.40
2017-06-02T06:16:42.215Z,14.28
2017-06-02T06:19:10.542Z,11.74
2017-06-02T06:21:38.873Z,17.84
2017-06-02T06:24:07.379Z,9.04
2017-06-02T06:26:35.823Z,17.76
2017-06-02T06:29:04.134Z,17.48
2017-06-02T06:31:32.455Z,11.02
2017-06-02T06:34:00.775Z,10.62
2017-06-02T06:36:29.091Z,13.42
2017-06-02T06:38:57.397Z,17.92
2017-06-02T06:41:25.775Z,9.50
2017-06-02T06:43:54.255Z,7.46
2017-06-02T06:46:22.568Z,9.90
2017-06-02T06:48:50.915Z,10.62
2017-06-02T06:51:19.239Z,8.02
2017-06-02T06:53:47.699Z,8.52
2017-06-02T06:56:16.015Z,6.76
2017-06-02T06:58:44.363Z,8.50
2017-06-02T07:01:12.776Z,8.10
2017-06-02T07:03:41.088Z,6.08
2017-06-02T07:06:09.406Z,7.42
2017-06-02T07:08:37.789Z,9.80
2017-06-02T07:11:06.265Z,7.20
2017-06-02T07:13:34.748Z,9.00
2017-06-02T07:16:03.052Z,5.16
2017-06-02T07:18:31.476Z,6.90
2017-06-02T07:20:59.787Z,6.72
2017-06-02T07:23:28.100Z,8.50
2017-06-02T07:25:56.416Z,7.46
2017-06-02T07:28:25.229Z,7.70
2017-06-02T07:30:53.702Z,10.04
2017-06-02T07:33:22.080Z,9.18
2017-06-02T07:35:51.568Z,7.38
2017-06-02T07:38:19.907Z,5.98
2017-06-02T07:40:48.228Z,6.32
2017-06-02T07:43:16.539Z,9.24
2017-06-02T07:45:44.855Z,10.34
2017-06-02T07:48:13.171Z,6.46
2017-06-02T07:50:41.480Z,9.58
2017-06-02T07:53:09.787Z,7.92
2017-06-02T07:55:38.101Z,10.58
2017-06-02T07:58:06.416Z,7.30
2017-06-02T08:00:34.733Z,5.10
2017-06-02T08:03:03.052Z,7.78
2017-06-02T08:05:31.369Z,3.82
2017-06-02T08:07:59.679Z,4.52
2017-06-02T08:10:27.983Z,7.98
2017-06-02T08:12:56.300Z,6.06
2017-06-02T08:15:24.611Z,6.24
2017-06-02T08:17:52.919Z,4.72
2017-06-02T08:20:21.231Z,8.14
2017-06-02T08:22:49.551Z,11.74
2017-06-02T08:25:19.011Z,3.92
2017-06-02T08:27:47.330Z,5.78
2017-06-02T08:30:15.669Z,5.24
2017-06-02T08:32:44.871Z,6.24
2017-06-02T08:35:13.175Z,5.28
2017-06-02T08:37:41.491Z,4.82
2017-06-02T08:40:09.801Z,6.92
2017-06-02T08:42:38.128Z,6.34
2017-06-02T08:45:06.443Z,5.52
2017-06-02T08:47:34.785Z,7.74
2017-06-02T08:50:03.100Z,3.60
2017-06-02T08:52:31.413Z,2.88
2017-06-02T08:54:59.722Z,2.16
2017-06-02T08:57:28.048Z,5.04
2017-06-02T08:59:56.359Z,3.64
2017-06-02T09:02:24.667Z,8.38
2017-06-02T09:04:52.988Z,6.82
2017-06-02T09:07:21.295Z,7.26
2017-06-02T09:09:49.628Z,4.24
2017-06-02T09:12:17.935Z,2.54
2017-06-02T09:14:46.251Z,3.16
2017-06-02T09:17:14.568Z,8.16
2017-06-02T09:19:42.874Z,2.94
2017-06-02T09:22:11.191Z,3.34
2017-06-02T09:24:39.500Z,6.38
2017-06-02T09:27:08.244Z,6.38
2017-06-02T09:29:37.168Z,5.26
2017-06-02T09:32:05.492Z,4.82
2017-06-02T09:34:33.815Z,2.10
2017-06-02T09:37:02.127Z,3.00
2017-06-02T09:39:30.439Z,3.80
2017-06-02T09:41:58.752Z,3.42
2017-06-02T09:44:27.059Z,7.44
2017-06-02T09:46:55.382Z,3.94
2017-06-02T09:49:23.700Z,3.36
2017-06-02T09:51:52.099Z,4.42
2017-06-02T09:54:20.411Z,1.90
2017-06-02T09:56:48.720Z,2.62
2017-06-02T09:59:17.036Z,4.78
2017-06-02T10:01:45.345Z,5.46
2017-06-02T10:04:13.662Z,2.24
2017-06-02T10:06:41.976Z,2.56
2017-06-02T10:09:10.292Z,5.78
2017-06-02T10:11:38.615Z,7.60
2017-06-02T10:14:06.926Z,2.94
2017-06-02T10:16:35.236Z,5.76
2017-06-02T10:19:03.548Z,5.72
2017-06-02T10:21:31.857Z,2.72
2017-06-02T10:24:00.173Z,2.64
2017-06-02T10:26:28.484Z,3.74
2017-06-02T10:28:56.931Z,5.52
2017-06-02T10:31:25.240Z,4.40
2017-06-02T10:33:53.564Z,4.48
2017-06-02T10:36:21.880Z,2.26
2017-06-02T10:38:50.196Z,3.40
2017-06-02T10:41:18.519Z,3.86
2017-06-02T10:43:46.837Z,4.50
2017-06-02T10:46:15.148Z,1.98
2017-06-02T10:48:43.463Z,3.40
2017-06-02T10:51:11.770Z,3.34
2017-06-02T10:53:40.095Z,3.74
2017-06-02T10:56:08.399Z,3.82
2017-06-02T10:58:36.703Z,3.20
2017-06-02T11:01:05.020Z,2.94
2017-06-02T11:03:33.324Z,7.56
2017-06-02T11:06:01.631Z,3.78
2017-06-02T11:08:29.944Z,5.82
2017-06-02T11:10:58.264Z,2.80
2017-06-02T11:13:26.593Z,6.38
2017-06-02T11:15:54.912Z,4.48
2017-06-02T11:18:23.227Z,2.36
2017-06-02T11:20:51.535Z,4.12
2017-06-02T11:23:19.839Z,3.54
2017-06-02T11:25:48.156Z,5.56
2017-06-02T11:28:16.465Z,5.68
2017-06-02T11:30:44.771Z,3.64
2017-06-02T11:33:13.075Z,3.32
2017-06-02T11:35:41.380Z,3.16
2017-06-02T11:38:09.783Z,2.86
2017-06-02T11:40:38.095Z,3.82
2017-06-02T11:43:06.416Z,2.98
2017-06-02T11:45:34.724Z,1.90
2017-06-02T11:48:03.091Z,2.20
2017-06-02T11:50:31.416Z,2.90
2017-06-02T11:52:59.728Z,10.82
2017-06-02T11:55:28.042Z,3.42
2017-06-02T11:57:56.351Z,2.52
2017-06-02T12:00:24.659Z,2.34
2017-06-02T12:02:53.063Z,3.24
2017-06-02T12:05:21.376Z,3.40
2017-06-02T12:07:49.695Z,4.50
2017-06-02T12:10:18.009Z,3.24
2017-06-02T12:12:46.315Z,1.24
2017-06-02T12:15:14.627Z,4.84
2017-06-02T12:17:42.935Z,2.48
2017-06-02T12:20:11.239Z,1.70
2017-06-02T12:22:39.567Z,2.72
2017-06-02T12:25:07.884Z,4.20
2017-06-02T12:27:36.203Z,2.08
2017-06-02T12:30:04.508Z,2.10
2017-06-02T12:32:32.819Z,4.78
2017-06-02T12:35:01.127Z,3.66
2017-06-02T12:37:29.427Z,3.34
2017-06-02T12:39:57.754Z,4.02
2017-06-02T12:42:26.060Z,8.56
2017-06-02T12:44:54.375Z,4.76
2017-06-02T12:47:22.691Z,10.26
2017-06-02T12:49:50.998Z,3.80
2017-06-02T12:52:19.315Z,1.82
2017-06-02T12:54:47.633Z,5.58
2017-06-02T12:57:15.945Z,7.50
2017-06-02T12:59:44.256Z,3.74
2017-06-02T13:02:12.576Z,10.36
2017-06-02T13:04:40.887Z,3.94
2017-06-02T13:07:09.204Z,5.30
2017-06-02T13:09:37.522Z,19.86
2017-06-02T13:12:05.827Z,19.18
2017-06-02T13:14:34.160Z,24.30
2017-06-02T13:17:02.483Z,11.72
2017-06-02T13:19:30.799Z,6.14
2017-06-02T13:21:59.112Z,8.70
2017-06-02T13:25:25.937Z,3.40
2017-06-02T13:27:53.521Z,9.47
2017-06-02T13:30:21.062Z,3.50
2017-06-02T13:32:48.599Z,4.07
2017-06-02T13:35:17.399Z,9.70
2017-06-02T13:37:47.798Z,4.73
2017-06-02T13:40:15.347Z,3.53
2017-06-02T13:42:43.647Z,4.60
2017-06-02T13:45:12.513Z,2.03
2017-06-02T13:47:40.816Z,2.90
2017-06-02T13:50:09.181Z,3.23
2017-06-02T13:52:37.448Z,3.73
2017-06-02T13:55:05.623Z,13.57
2017-06-02T13:57:33.164Z,4.43
2017-06-02T14:00:02.308Z,5.80
2017-06-02T14:02:29.850Z,3.33
2017-06-02T14:04:57.396Z,2.17
2017-06-02T14:07:24.939Z,4.47
2017-06-02T14:09:53.254Z,3.53
2017-06-02T14:12:20.789Z,3.87
2017-06-02T14:14:48.323Z,4.93
2017-06-02T14:17:16.639Z,2.90
2017-06-02T14:19:44.177Z,2.00
2017-06-02T14:22:12.475Z,3.43
2017-06-02T14:24:40.012Z,2.60
2017-06-02T14:27:08.311Z,3.33
2017-06-02T14:29:35.859Z,4.33
2017-06-02T14:32:03.400Z,38.50
2017-06-02T14:34:30.971Z,8.90
2017-06-02T14:36:58.511Z,2.93
2017-06-02T14:39:26.812Z,3.00
2017-06-02T14:41:54.356Z,3.03
2017-06-02T14:44:22.684Z,2.30
2017-06-02T14:46:50.947Z,1.87
2017-06-02T14:49:18.777Z,1.97
2017-06-02T14:51:47.081Z,2.93
2017-06-02T14:54:14.854Z,2.37
2017-06-02T14:56:42.398Z,3.70
2017-06-02T14:59:10.031Z,5.20
2017-06-02T15:01:38.332Z,2.37
2017-06-02T15:04:05.867Z,3.23
2017-06-02T15:06:34.215Z,4.07
2017-06-02T15:09:01.755Z,3.67
2017-06-02T15:11:29.287Z,2.37
2017-06-02T15:13:56.819Z,5.03
2017-06-02T15:16:25.124Z,2.83
2017-06-02T15:18:52.673Z,4.07
2017-06-02T15:21:20.272Z,4.07
2017-06-02T15:23:47.809Z,3.20
2017-06-02T15:26:15.351Z,2.70
2017-06-02T15:28:42.884Z,6.00
2017-06-02T15:31:11.188Z,8.10
2017-06-02T15:33:38.732Z,2.57
2017-06-02T15:36:06.271Z,5.27
2017-06-02T15:38:34.571Z,3.47
2017-06-02T15:41:02.112Z,3.77
2017-06-02T15:43:30.424Z,2.00
2017-06-02T15:45:57.959Z,4.13
2017-06-02T15:48:25.519Z,2.50
2017-06-02T15:50:53.054Z,3.63
2017-06-02T15:53:20.644Z,4.00
2017-06-02T15:55:48.191Z,2.47
2017-06-02T15:58:16.491Z,2.63
2017-06-02T16:00:44.040Z,2.20
2017-06-02T16:03:11.584Z,4.17
2017-06-02T16:05:39.884Z,2.87
2017-06-02T16:08:07.418Z,3.37
2017-06-02T16:10:35.735Z,2.87
2017-06-02T16:13:03.308Z,5.30
2017-06-02T16:15:30.840Z,4.10
2017-06-02T16:17:58.375Z,3.73
2017-06-02T16:20:26.673Z,3.70
2017-06-02T16:22:54.212Z,3.60
2017-06-02T16:25:22.519Z,7.00
2017-06-02T16:27:50.060Z,17.27
2017-06-02T16:30:17.603Z,3.60
2017-06-02T16:32:45.143Z,2.60
2017-06-02T16:35:13.489Z,4.10
2017-06-02T16:37:41.290Z,4.93
2017-06-02T16:40:09.596Z,5.70
2017-06-02T16:42:37.131Z,4.87
2017-06-02T16:45:05.435Z,3.50
2017-06-02T16:47:32.975Z,6.23
2017-06-02T16:50:01.282Z,3.23
2017-06-02T16:52:28.825Z,3.03
2017-06-02T16:54:56.360Z,5.03
2017-06-02T16:57:24.664Z,4.40
2017-06-02T16:59:52.199Z,5.63
2017-06-02T17:02:20.511Z,4.83
2017-06-02T17:04:48.043Z,7.60
2017-06-02T17:07:15.589Z,6.57
2017-06-02T17:09:43.928Z,4.60
2017-06-02T17:12:11.490Z,5.70
2017-06-02T17:14:39.035Z,6.30
2017-06-02T17:17:06.577Z,5.00
2017-06-02T17:19:34.112Z,8.13
2017-06-02T17:22:01.656Z,5.80
2017-06-02T17:24:29.974Z,5.17
2017-06-02T17:26:57.521Z,7.30
2017-06-02T17:29:25.056Z,4.43
2017-06-02T17:31:53.417Z,5.27
2017-06-02T17:34:20.979Z,10.47
2017-06-02T17:36:49.882Z,25.40
2017-06-02T17:39:18.189Z,8.33
2017-06-02T17:41:45.724Z,6.90
2017-06-02T17:44:13.267Z,5.70
2017-06-02T17:46:41.584Z,10.63
2017-06-02T17:49:09.142Z,6.77
2017-06-02T17:51:36.683Z,6.77
2017-06-02T17:54:04.230Z,4.10
2017-06-02T17:56:32.527Z,9.67
2017-06-02T17:59:00.056Z,6.50
2017-06-02T18:01:28.375Z,5.27
2017-06-02T18:03:55.920Z,3.40
2017-06-02T18:06:23.451Z,7.77
2017-06-02T18:08:51.764Z,5.40
2017-06-02T18:11:19.296Z,4.53
2017-06-02T18:13:46.831Z,8.90
2017-06-02T18:16:14.404Z,8.37
2017-06-02T18:18:42.740Z,6.63
2017-06-02T18:21:10.281Z,6.80
2017-06-02T18:23:37.812Z,6.50
2017-06-02T18:26:05.352Z,4.40
2017-06-02T18:28:33.672Z,4.23
2017-06-02T18:31:01.230Z,7.53
2017-06-02T18:33:28.894Z,8.07
2017-06-02T18:35:57.165Z,7.00
2017-06-02T18:38:24.777Z,4.07
2017-06-02T18:40:53.128Z,7.30
2017-06-02T18:43:20.691Z,6.03
2017-06-02T18:45:48.853Z,5.10
2017-06-02T18:48:16.393Z,7.90
2017-06-02T18:50:43.927Z,8.20
2017-06-02T18:53:11.471Z,11.67
2017-06-02T18:55:39.779Z,7.17
2017-06-02T18:58:07.320Z,9.70
2017-06-02T19:00:34.866Z,5.80
2017-06-02T19:03:03.195Z,10.50
2017-06-02T19:05:30.747Z,4.50
2017-06-02T19:07:58.284Z,5.40
2017-06-02T19:10:25.816Z,7.37
2017-06-02T19:12:54.142Z,5.17
2017-06-02T19:15:21.680Z,6.20
2017-06-02T19:17:49.255Z,7.57
2017-06-02T19:20:16.803Z,6.00
2017-06-02T19:22:44.345Z,4.63
2017-06-02T19:25:11.895Z,9.17
2017-06-02T19:27:39.441Z,6.83
2017-06-02T19:30:07.752Z,6.10
2017-06-02T19:32:35.300Z,11.90
2017-06-02T19:35:02.839Z,6.73
2017-06-02T19:37:31.143Z,4.77
2017-06-02T19:39:58.719Z,5.90
2017-06-02T19:42:26.277Z,4.53
2017-06-02T19:44:53.826Z,7.60
2017-06-02T19:47:21.366Z,9.60
2017-06-02T19:49:48.902Z,7.27
2017-06-02T19:52:17.212Z,8.90
2017-06-02T19:54:44.759Z,7.27
2017-06-02T19:57:12.295Z,8.63
2017-06-02T19:59:40.611Z,9.57
2017-06-02T20:02:08.147Z,6.50
2017-06-02T20:04:36.483Z,9.00
2017-06-02T20:07:04.460Z,5.97
2017-06-02T20:09:32.000Z,6.67
2017-06-02T20:11:59.542Z,7.23
2017-06-02T20:14:27.102Z,7.30
2017-06-02T20:16:54.630Z,8.53
2017-06-02T20:19:22.176Z,7.40
2017-06-02T20:21:50.479Z,7.93
2017-06-02T20:24:18.015Z,7.10
2017-06-02T20:26:46.319Z,9.37
2017-06-02T20:29:13.863Z,11.50
2017-06-02T20:31:41.424Z,6.00
2017-06-02T20:34:09.016Z,6.57
2017-06-02T20:36:37.207Z,9.53
2017-06-02T20:39:04.755Z,13.10
2017-06-02T20:41:32.293Z,6.63
2017-06-02T20:43:59.840Z,8.30
2017-06-02T20:46:27.384Z,10.13
2017-06-02T20:48:55.683Z,7.40
2017-06-02T20:51:23.228Z,7.07
2017-06-02T20:53:50.770Z,13.70
2017-06-02T20:56:19.088Z,11.07
2017-06-02T20:58:46.645Z,7.93
2017-06-02T21:01:14.175Z,8.87
2017-06-02T21:03:41.716Z,6.13
2017-06-02T21:06:10.028Z,6.83
2017-06-02T21:08:37.606Z,15.30
2017-06-02T21:11:05.183Z,9.53
2017-06-02T21:13:32.743Z,11.40
2017-06-02T21:16:00.295Z,9.83
2017-06-02T21:18:27.828Z,7.90
2017-06-02T21:20:55.367Z,7.90
2017-06-02T21:23:22.931Z,9.53
2017-06-02T21:25:50.475Z,10.17
2017-06-02T21:28:18.772Z,8.47
2017-06-02T21:30:46.596Z,8.93
2017-06-02T21:33:14.915Z,7.00
2017-06-02T21:35:45.327Z,9.07
2017-06-02T21:38:13.031Z,11.77
2017-06-02T21:40:40.568Z,6.13
2017-06-02T21:43:08.112Z,6.37
2017-06-02T21:45:35.660Z,6.03
2017-06-02T21:48:03.211Z,7.73
2017-06-02T21:50:31.543Z,6.77
2017-06-02T21:52:59.092Z,10.80
2017-06-02T21:55:26.637Z,7.33
2017-06-02T21:57:54.177Z,9.60
2017-06-02T22:02:58.719Z,8.70
2017-06-02T22:05:26.256Z,7.87
2017-06-02T22:07:54.559Z,7.77
2017-06-02T22:10:22.122Z,8.70
2017-06-02T22:12:49.675Z,7.60
2017-06-02T22:15:17.223Z,8.33
2017-06-02T22:17:44.759Z,10.70
2017-06-02T22:20:13.056Z,8.33
2017-06-02T22:22:40.608Z,12.63
2017-06-02T22:25:08.917Z,10.50
2017-06-02T22:27:36.463Z,7.50
2017-06-02T22:30:04.004Z,10.07
2017-06-02T22:32:31.550Z,6.77
2017-06-02T22:34:59.859Z,6.70
2017-06-02T22:37:27.395Z,8.80
2017-06-02T22:39:55.705Z,8.53
2017-06-02T22:42:23.244Z,6.67
2017-06-02T22:44:50.777Z,6.50
2017-06-02T22:47:19.076Z,7.93
2017-06-02T22:49:46.620Z,6.80
2017-06-02T22:52:14.930Z,6.30
2017-06-02T22:54:42.463Z,7.67
2017-06-02T22:57:10.028Z,8.70
2017-06-02T22:59:37.563Z,5.93
2017-06-02T23:02:05.875Z,7.17
2017-06-02T23:04:33.423Z,8.90
2017-06-02T23:07:00.957Z,6.80
2017-06-02T23:09:29.273Z,8.63
2017-06-02T23:11:56.813Z,5.20
2017-06-02T23:14:24.352Z,6.33
2017-06-02T23:16:52.690Z,5.43
2017-06-02T23:19:20.219Z,8.97
2017-06-02T23:21:47.751Z,8.63
2017-06-02T23:24:16.052Z,8.67
2017-06-02T23:26:43.596Z,8.53
2017-06-02T23:29:11.149Z,7.30
2017-06-02T23:31:38.695Z,14.47
2017-06-02T23:34:07.012Z,16.13
2017-06-02T23:36:34.563Z,14.23
2017-06-02T23:39:02.095Z,20.93
2017-06-02T23:41:30.405Z,15.77
2017-06-02T23:43:57.940Z,10.40
2017-06-02T23:46:25.479Z,13.97
2017-06-02T23:48:53.797Z,15.00
2017-06-02T23:51:21.331Z,11.53
2017-06-02T23:53:48.876Z,15.87
2017-06-02T23:56:17.194Z,13.40
2017-06-02T23:58:44.728Z,16.63
